Skip Navigation

Christman Field Latest Observations

Switch to metric unitsOther observation timesWeekly graphs

Date Time
MST
Temp
°F
RH
%
DewPt
°F
Wind
mph
Dir
°
Gust
mph
Dir
°
Press
in Hg
Solar
W/m^2
Prec
in
2018-01-21 18:10 24.8 57.9 12.0 19.2 23.8 24.798 0.0 0.00
2018-01-21 18:05 24.8 56.5 11.5 19.2 24.9 24.798 0.0 0.00
2018-01-21 18:00 24.9 55.6 11.3 18.3 24.9 24.797 0.0 0.00
2018-01-21 17:55 24.9 57.1 11.8 16.8 21.5 24.797 0.0 0.00
2018-01-21 17:50 24.9 57.0 11.8 15.8 18.5 24.795 0.0 0.00
2018-01-21 17:45 25.1 56.7 11.9 18.1 21.6 24.793 0.0 0.00
2018-01-21 17:40 25.0 56.3 11.6 18.0 21.0 24.793 0.0 0.00
2018-01-21 17:35 25.0 57.5 12.1 17.8 23.6 24.792 0.1 0.00
2018-01-21 17:30 25.3 57.4 12.4 18.7 22.7 24.791 0.2 0.00
2018-01-21 17:25 25.3 57.2 12.3 21.7 27.8 24.792 0.3 0.00
2018-01-21 17:20 25.1 58.4 12.5 17.6 22.3 24.792 0.7 0.00
2018-01-21 17:15 25.3 60.3 13.4 19.0 24.0 24.790 1.3 0.00
2018-01-21 17:10 25.5 58.3 12.9 18.3 21.4 24.789 1.9 0.00
2018-01-21 17:05 25.5 61.9 14.3 17.4 23.2 24.790 2.6 0.00
2018-01-21 17:00 25.4 60.6 13.7 16.8 20.7 24.790 3.2 0.00
2018-01-21 16:55 25.3 62.5 14.3 17.6 21.4 24.790 4.1 0.00
2018-01-21 16:50 25.3 62.7 14.3 18.7 24.8 24.789 5.4 0.00
2018-01-21 16:45 25.0 65.1 14.9 18.8 21.9 24.789 6.7 0.00
2018-01-21 16:40 25.1 65.6 15.2 20.0 25.0 24.789 8.2 0.00
2018-01-21 16:35 25.2 66.7 15.7 18.5 25.0 24.787 10.4 0.00
2018-01-21 16:30 25.3 65.8 15.4 17.9 22.1 24.784 14.5 0.00
2018-01-21 16:25 25.1 66.3 15.4 17.7 23.4 24.784 20.6 0.00
2018-01-21 16:20 24.9 68.2 15.9 17.7 24.4 24.783 29.1 0.00
2018-01-21 16:15 24.8 71.4 16.9 16.7 21.0 24.780 38.7 0.00
2018-01-21 16:10 25.0 69.9 16.6 16.7 20.8 24.778 44.8 0.00
2018-01-21 16:05 25.1 70.5 16.9 14.3 18.5 24.775 49.7 0.00
2018-01-21 16:00 25.3 73.1 17.9 14.4 19.0 24.774 52.3 0.00
2018-01-21 15:55 25.4 64.8 15.2 18.8 23.2 24.774 52.7 0.00
2018-01-21 15:50 25.1 66.7 15.6 16.7 22.7 24.771 55.8 0.00
2018-01-21 15:45 24.5 73.4 17.2 14.1 19.8 24.767 62.0 0.00